Time;durP1;ratioP1;P1;durP2;ratioP2;P2;SDS_P1;SDS_P2;PMS_P1;PMS_P2;Temp;Humidity;BMP_temperature;BMP_pressure;BME280_temperature;BME280_humidity;BME280_pressure;Samples;Min_cycle;Max_cycle;Signal;HPM_P1;HPM_P2
2022/03/11 00:00:51;;;;;;;;;;;;;;;1.11;32.15;101155.34;4483311;31;35175;-67
2022/03/11 00:03:21;;;;;;;;;;;;;;;1.24;32.03;101145.50;4487688;31;33625;-69
2022/03/11 00:05:54;;;;;;;;;;;;;;;0.32;34.02;101146.63;4486826;31;33122;-69
2022/03/11 00:08:28;;;;;;;;;;;;;;;0.79;35.58;101153.13;4489387;31;33370;-69
2022/03/11 00:10:57;;;;;;;;;;;;;;;0.95;35.02;101148.53;4483244;31;33356;-67
2022/03/11 00:13:26;;;;;;;;;;;;;;;0.42;35.02;101156.19;4485313;31;34986;-70
2022/03/11 00:15:55;;;;;;;;;;;;;;;0.74;34.08;101149.66;4484468;31;35501;-70
2022/03/11 00:18:25;;;;;;;;;;;;;;;0.70;36.64;101154.97;4482377;31;34129;-68
2022/03/11 00:20:56;;;;;;;;;;;;;;;0.19;34.71;101157.28;4484009;31;34297;-67
2022/03/11 00:23:25;;;;;;;;;;;;;;;0.89;32.91;101157.38;4483057;31;34000;-68
2022/03/11 00:25:54;;;;;;;;;;;;;;;0.70;33.91;101152.31;4494941;31;33998;-67
2022/03/11 00:28:23;;;;;;;;;;;;;;;0.85;33.40;101155.69;4482163;31;34531;-68
2022/03/11 00:30:52;;;;;;;;;;;;;;;0.58;35.23;101148.97;4488201;31;33909;-69
2022/03/11 00:33:22;;;;;;;;;;;;;;;0.93;34.74;101154.72;4479150;31;33308;-69
2022/03/11 00:35:51;;;;;;;;;;;;;;;0.69;36.41;101158.50;4485221;31;35707;-70
2022/03/11 00:38:21;;;;;;;;;;;;;;;1.13;37.11;101159.72;4494450;31;34316;-67
2022/03/11 00:40:56;;;;;;;;;;;;;;;1.50;35.41;101153.03;4483559;31;32223;-68
2022/03/11 00:43:25;;;;;;;;;;;;;;;1.95;33.33;101153.19;4483487;31;32953;-67
2022/03/11 00:45:53;;;;;;;;;;;;;;;1.95;34.29;101145.28;4482851;31;35333;-67
2022/03/11 00:48:24;;;;;;;;;;;;;;;2.44;34.30;101149.66;4481367;31;33129;-67
2022/03/11 00:50:53;;;;;;;;;;;;;;;2.60;32.09;101144.97;4481707;31;32222;-65
2022/03/11 00:53:28;;;;;;;;;;;;;;;3.54;30.95;101150.00;4480874;31;32792;-64
2022/03/11 00:56:01;;;;;;;;;;;;;;;3.58;30.56;101146.38;4481841;31;33105;-67
2022/03/11 00:58:29;;;;;;;;;;;;;;;3.55;30.23;101148.22;4481227;31;34269;-67
2022/03/11 01:00:57;;;;;;;;;;;;;;;3.64;29.02;101138.28;4470758;31;31870;-65
2022/03/11 01:03:26;;;;;;;;;;;;;;;4.34;28.89;101140.94;4481647;31;33062;-68
2022/03/11 01:05:55;;;;;;;;;;;;;;;3.94;28.06;101138.44;4480819;31;34319;-69
2022/03/11 01:08:24;;;;;;;;;;;;;;;4.34;28.38;101140.06;4483970;31;33900;-65
2022/03/11 01:10:52;;;;;;;;;;;;;;;3.62;32.37;101144.50;4481135;31;33373;-65
2022/03/11 01:13:21;;;;;;;;;;;;;;;3.33;28.89;101140.75;4495971;31;34186;-67
2022/03/11 01:15:50;;;;;;;;;;;;;;;3.84;29.06;101131.63;4496243;31;35744;-67
2022/03/11 01:18:19;;;;;;;;;;;;;;;3.58;32.30;101145.50;4481225;31;34931;-68
2022/03/11 01:20:48;;;;;;;;;;;;;;;3.64;30.42;101137.41;4486948;31;33337;-67
2022/03/11 01:23:16;;;;;;;;;;;;;;;3.89;30.53;101143.84;4489358;31;35198;-66
2022/03/11 01:25:44;;;;;;;;;;;;;;;3.98;29.02;101137.47;4482354;31;34248;-68
2022/03/11 01:28:13;;;;;;;;;;;;;;;3.36;29.09;101148.63;4488496;31;34093;-67
2022/03/11 01:30:42;;;;;;;;;;;;;;;2.95;30.71;101147.78;4493204;31;34548;-66
2022/03/11 01:33:10;;;;;;;;;;;;;;;2.54;30.85;101141.56;4491678;31;34937;-66
2022/03/11 01:35:41;;;;;;;;;;;;;;;2.47;31.91;101142.59;4485972;31;34379;-67
2022/03/11 01:38:09;;;;;;;;;;;;;;;2.35;31.02;101145.44;4483786;31;34047;-64
2022/03/11 01:40:37;;;;;;;;;;;;;;;2.94;32.20;101135.44;4484646;31;33281;-66
2022/03/11 01:43:12;;;;;;;;;;;;;;;2.86;31.70;101126.81;4488859;31;33009;-68
2022/03/11 01:45:43;;;;;;;;;;;;;;;3.00;31.48;101123.88;4496271;31;34236;-66
2022/03/11 01:48:11;;;;;;;;;;;;;;;2.85;31.25;101138.28;4484612;31;32849;-66
2022/03/11 01:50:42;;;;;;;;;;;;;;;2.06;30.58;101138.06;4481998;31;33363;-66
2022/03/11 01:53:12;;;;;;;;;;;;;;;2.51;32.73;101130.19;4480491;31;32847;-67
2022/03/11 01:55:42;;;;;;;;;;;;;;;2.40;31.39;101135.66;4491388;31;33958;-68
2022/03/11 01:58:11;;;;;;;;;;;;;;;2.99;32.15;101130.94;4482763;31;32967;-65
2022/03/11 02:00:41;;;;;;;;;;;;;;;3.06;34.18;101123.75;4471938;31;33109;-67
2022/03/11 02:03:10;;;;;;;;;;;;;;;2.75;31.07;101128.78;4489252;31;33845;-66
2022/03/11 02:05:39;;;;;;;;;;;;;;;3.08;32.17;101131.63;4483285;31;33192;-64
2022/03/11 02:08:08;;;;;;;;;;;;;;;3.41;30.98;101136.19;4488450;31;34299;-65
2022/03/11 02:10:37;;;;;;;;;;;;;;;3.41;29.53;101130.88;4484514;31;33654;-67
2022/03/11 02:13:06;;;;;;;;;;;;;;;3.95;29.63;101127.81;4494488;31;33938;-67
2022/03/11 02:15:35;;;;;;;;;;;;;;;3.73;30.94;101126.59;4483423;31;34331;-67
2022/03/11 02:18:04;;;;;;;;;;;;;;;3.32;31.98;101128.44;4483935;32;34069;-66
2022/03/11 02:20:33;;;;;;;;;;;;;;;2.95;30.58;101131.91;4484997;31;32238;-66
2022/03/11 02:23:02;;;;;;;;;;;;;;;3.52;29.38;101137.69;4476581;31;35084;-69
2022/03/11 02:25:31;;;;;;;;;;;;;;;4.05;30.29;101138.19;4490827;31;33235;-66
2022/03/11 02:28:04;;;;;;;;;;;;;;;3.29;29.36;101138.22;4494608;31;34416;-66
2022/03/11 02:30:43;;;;;;;;;;;;;;;4.15;28.44;101139.66;4493740;31;33058;-65
2022/03/11 02:33:12;;;;;;;;;;;;;;;3.96;27.78;101133.97;4485827;31;33664;-68
2022/03/11 02:35:40;;;;;;;;;;;;;;;4.44;28.98;101139.75;4489066;31;35219;-69
2022/03/11 02:38:09;;;;;;;;;;;;;;;4.64;28.97;101133.03;4487637;31;32927;-66
2022/03/11 02:40:39;;;;;;;;;;;;;;;4.86;27.14;101136.81;4488199;31;33251;-69
2022/03/11 02:43:09;;;;;;;;;;;;;;;5.08;26.75;101136.19;4483462;31;32834;-70
2022/03/11 02:45:39;;;;;;;;;;;;;;;5.17;26.69;101138.56;4484428;31;33076;-65
2022/03/11 02:48:06;;;;;;;;;;;;;;;5.33;27.99;101128.34;4483879;31;35272;-66
2022/03/11 02:50:37;;;;;;;;;;;;;;;5.11;26.35;101120.16;4484694;31;32054;-67
2022/03/11 02:53:05;;;;;;;;;;;;;;;5.58;25.65;101118.66;4487905;31;34296;-66
2022/03/11 02:55:35;;;;;;;;;;;;;;;5.42;25.25;101132.47;4483396;31;32802;-66
2022/03/11 02:58:03;;;;;;;;;;;;;;;5.82;25.52;101127.63;4491413;31;32967;-67
2022/03/11 03:00:34;;;;;;;;;;;;;;;4.78;26.74;101138.81;4480460;31;32668;-65
2022/03/11 03:03:03;;;;;;;;;;;;;;;5.36;25.45;101131.78;4482359;31;32842;-66
2022/03/11 03:05:32;;;;;;;;;;;;;;;5.81;25.54;101120.59;4482494;31;35280;-66
2022/03/11 03:08:01;;;;;;;;;;;;;;;5.90;25.54;101124.72;4484178;31;34273;-64
2022/03/11 03:10:30;;;;;;;;;;;;;;;6.40;24.90;101124.81;4483835;31;33288;-65
2022/03/11 03:12:59;;;;;;;;;;;;;;;6.07;24.54;101126.84;4482217;31;32969;-66
2022/03/11 03:15:29;;;;;;;;;;;;;;;5.79;25.13;101125.06;4488514;31;34436;-65
2022/03/11 03:17:57;;;;;;;;;;;;;;;5.86;25.37;101123.09;4493961;31;34233;-66
2022/03/11 03:20:26;;;;;;;;;;;;;;;5.75;25.67;101126.09;4484509;31;32238;-66
2022/03/11 03:22:56;;;;;;;;;;;;;;;5.96;25.80;101124.53;4490957;31;33592;-65
2022/03/11 03:25:26;;;;;;;;;;;;;;;6.05;25.32;101126.03;4484594;31;35416;-66
2022/03/11 03:27:55;;;;;;;;;;;;;;;5.99;25.06;101121.78;4489084;31;32825;-65
2022/03/11 03:30:25;;;;;;;;;;;;;;;5.81;25.29;101127.66;4491847;31;32218;-66
2022/03/11 03:32:55;;;;;;;;;;;;;;;5.61;25.25;101121.22;4490034;31;34059;-66
2022/03/11 03:35:23;;;;;;;;;;;;;;;5.89;25.90;101124.78;4484645;31;33117;-64
2022/03/11 03:37:52;;;;;;;;;;;;;;;6.20;25.10;101116.66;4487792;31;32003;-65
2022/03/11 03:40:21;;;;;;;;;;;;;;;6.48;24.46;101112.06;4483101;31;33113;-65
2022/03/11 03:42:51;;;;;;;;;;;;;;;6.40;24.96;101126.59;4486593;31;32806;-67
2022/03/11 03:45:25;;;;;;;;;;;;;;;6.73;23.99;101114.72;4482570;31;34323;-65
2022/03/11 03:47:53;;;;;;;;;;;;;;;6.71;24.35;101115.72;4485487;31;34428;-64
2022/03/11 03:50:22;;;;;;;;;;;;;;;6.70;23.77;101119.28;4482257;31;33339;-64
2022/03/11 03:52:51;;;;;;;;;;;;;;;6.65;24.50;101114.16;4480695;31;33057;-65
2022/03/11 03:55:24;;;;;;;;;;;;;;;6.59;24.41;101114.38;4482604;31;35486;-64
2022/03/11 03:57:53;;;;;;;;;;;;;;;5.91;25.70;101117.63;4490040;31;32937;-65
2022/03/11 04:00:23;;;;;;;;;;;;;;;5.92;24.98;101125.53;4491055;31;32242;-66
2022/03/11 04:02:53;;;;;;;;;;;;;;;6.09;25.46;101121.47;4488074;31;33101;-65
2022/03/11 04:05:21;;;;;;;;;;;;;;;6.04;25.16;101126.97;4487945;31;35213;-65
2022/03/11 04:07:49;;;;;;;;;;;;;;;6.60;24.06;101134.72;4483573;31;35125;-64
2022/03/11 04:10:18;;;;;;;;;;;;;;;5.28;26.87;101135.56;4496351;31;34788;-66
2022/03/11 04:12:46;;;;;;;;;;;;;;;5.79;25.41;101134.84;4489836;31;34939;-64
2022/03/11 04:15:14;;;;;;;;;;;;;;;6.06;25.75;101130.41;4484090;31;34546;-66
2022/03/11 04:17:43;;;;;;;;;;;;;;;6.19;25.11;101130.84;4487706;31;33906;-65
2022/03/11 04:20:11;;;;;;;;;;;;;;;6.22;24.99;101138.72;4484036;31;34156;-66
2022/03/11 04:22:41;;;;;;;;;;;;;;;6.28;25.06;101142.03;4491000;31;33781;-65
2022/03/11 04:25:12;;;;;;;;;;;;;;;6.41;24.63;101146.94;4485681;31;33298;-65
2022/03/11 04:27:41;;;;;;;;;;;;;;;6.37;24.81;101143.53;4487854;31;34169;-66
2022/03/11 04:30:11;;;;;;;;;;;;;;;5.73;26.38;101146.53;4485834;31;33305;-66
2022/03/11 04:32:39;;;;;;;;;;;;;;;6.12;25.71;101151.47;4490488;31;34050;-64
2022/03/11 04:35:08;;;;;;;;;;;;;;;6.07;25.69;101148.13;4485893;31;33867;-66
2022/03/11 04:37:36;;;;;;;;;;;;;;;6.20;24.72;101149.44;4487194;31;33177;-65
2022/03/11 04:40:07;;;;;;;;;;;;;;;6.26;24.32;101140.34;4486520;31;33649;-65
2022/03/11 04:42:35;;;;;;;;;;;;;;;5.95;25.29;101148.53;4483936;31;33907;-67
2022/03/11 04:45:04;;;;;;;;;;;;;;;5.60;26.37;101150.50;4488937;31;34413;-64
2022/03/11 04:47:32;;;;;;;;;;;;;;;6.07;24.62;101148.97;4489344;31;33980;-64
2022/03/11 04:50:01;;;;;;;;;;;;;;;4.51;27.30;101156.38;4489792;31;34093;-65
2022/03/11 04:52:29;;;;;;;;;;;;;;;5.69;25.90;101155.53;4484371;31;34817;-65
2022/03/11 04:54:57;;;;;;;;;;;;;;;5.91;25.05;101165.47;4486487;31;33084;-64
2022/03/11 04:57:25;;;;;;;;;;;;;;;6.02;24.45;101164.19;4493162;31;33036;-64
2022/03/11 04:59:53;;;;;;;;;;;;;;;5.65;25.80;101163.63;4488878;31;32836;-66
2022/03/11 05:02:27;;;;;;;;;;;;;;;5.88;25.27;101160.25;4492474;31;34985;-67
2022/03/11 05:04:56;;;;;;;;;;;;;;;5.28;26.84;101164.78;4491591;31;34992;-64
2022/03/11 05:07:24;;;;;;;;;;;;;;;5.87;25.17;101169.13;4484216;31;35244;-65
2022/03/11 05:09:53;;;;;;;;;;;;;;;5.72;24.99;101168.72;4490667;31;33217;-64
2022/03/11 05:12:22;;;;;;;;;;;;;;;5.74;25.57;101174.81;4485284;31;34596;-67
2022/03/11 05:14:50;;;;;;;;;;;;;;;5.70;24.92;101173.19;4484508;31;33424;-64
2022/03/11 05:17:18;;;;;;;;;;;;;;;5.63;25.71;101168.13;4485240;31;34345;-65
2022/03/11 05:19:47;;;;;;;;;;;;;;;5.63;24.94;101174.31;4488611;31;33598;-66
2022/03/11 05:22:16;;;;;;;;;;;;;;;5.65;24.92;101169.84;4495044;31;34023;-64
2022/03/11 05:24:47;;;;;;;;;;;;;;;5.28;26.68;101176.25;4495041;31;34146;-64
2022/03/11 05:27:16;;;;;;;;;;;;;;;5.58;25.60;101168.25;4483471;31;34450;-67
2022/03/11 05:29:44;;;;;;;;;;;;;;;5.18;26.85;101177.47;4494019;31;33396;-65
2022/03/11 05:32:14;;;;;;;;;;;;;;;5.37;26.36;101172.47;4488196;31;35148;-64
2022/03/11 05:34:43;;;;;;;;;;;;;;;4.80;28.35;101178.56;4484236;31;34348;-64
2022/03/11 05:37:11;;;;;;;;;;;;;;;5.50;26.26;101184.44;4493355;31;32714;-66
2022/03/11 05:39:40;;;;;;;;;;;;;;;5.92;25.30;101178.69;4486193;31;33095;-64
2022/03/11 05:42:09;;;;;;;;;;;;;;;5.57;26.51;101183.34;4490096;31;34077;-66
2022/03/11 05:44:39;;;;;;;;;;;;;;;5.97;25.42;101181.22;4491844;31;34231;-65
2022/03/11 05:47:13;;;;;;;;;;;;;;;5.66;26.55;101187.50;4485400;31;32866;-64
2022/03/11 05:49:45;;;;;;;;;;;;;;;6.11;25.30;101194.94;4492000;31;31935;-65
2022/03/11 05:52:23;;;;;;;;;;;;;;;6.36;24.89;101191.47;4482553;31;32376;-65
2022/03/11 05:55:05;;;;;;;;;;;;;;;6.49;24.62;101188.31;4489049;31;35356;-64
2022/03/11 05:57:45;;;;;;;;;;;;;;;6.33;25.58;101186.25;4497336;31;32945;-64
2022/03/11 06:00:24;;;;;;;;;;;;;;;6.13;27.08;101198.44;4495098;31;33620;-64
2022/03/11 06:03:04;;;;;;;;;;;;;;;6.33;25.89;101189.78;4482245;31;34188;-65
2022/03/11 06:05:43;;;;;;;;;;;;;;;6.22;26.30;101198.09;4483089;31;34435;-65
2022/03/11 06:08:24;;;;;;;;;;;;;;;5.72;25.93;101211.22;4484500;31;33935;-66
2022/03/11 06:11:06;;;;;;;;;;;;;;;6.35;25.64;101211.84;4490866;31;32225;-67
2022/03/11 06:13:45;;;;;;;;;;;;;;;6.41;25.55;101216.09;4485735;31;32953;-65
2022/03/11 06:16:22;;;;;;;;;;;;;;;6.07;26.07;101217.22;4486588;31;33556;-66
2022/03/11 06:18:58;;;;;;;;;;;;;;;6.58;25.96;101211.06;4488977;31;33009;-65
2022/03/11 06:21:29;;;;;;;;;;;;;;;5.95;25.32;101217.63;4485020;31;32907;-65
2022/03/11 06:24:06;;;;;;;;;;;;;;;6.67;25.04;101215.19;4484289;31;34881;-65
2022/03/11 06:26:40;;;;;;;;;;;;;;;5.91;26.55;101222.12;4479287;32;35516;-65
2022/03/11 06:29:21;;;;;;;;;;;;;;;6.13;25.74;101227.66;4484563;31;33245;-65
2022/03/11 06:31:55;;;;;;;;;;;;;;;5.88;25.63;101227.56;4486329;31;33383;-66
2022/03/11 06:34:26;;;;;;;;;;;;;;;5.32;29.41;101231.00;4485679;31;34648;-66
2022/03/11 06:37:02;;;;;;;;;;;;;;;5.53;26.99;101231.28;4485971;31;33732;-65
2022/03/11 06:39:45;;;;;;;;;;;;;;;4.40;29.49;101233.56;4483276;31;33174;-65
2022/03/11 06:42:26;;;;;;;;;;;;;;;4.23;30.53;101229.56;4492813;31;32996;-66
2022/03/11 06:45:05;;;;;;;;;;;;;;;4.74;27.65;101226.47;4488276;31;31552;-68
2022/03/11 06:47:41;;;;;;;;;;;;;;;2.53;30.70;101226.16;4486812;31;34403;-67
2022/03/11 06:50:17;;;;;;;;;;;;;;;2.88;28.46;101230.78;4478181;31;32699;-68
2022/03/11 06:52:45;;;;;;;;;;;;;;;2.23;29.81;101239.00;4486243;31;33243;-67
2022/03/11 06:55:16;;;;;;;;;;;;;;;2.04;30.55;101241.06;4483018;31;32666;-67
2022/03/11 06:57:47;;;;;;;;;;;;;;;2.65;30.78;101239.16;4483012;31;32143;-66
2022/03/11 07:00:15;;;;;;;;;;;;;;;2.68;31.85;101230.28;4482123;31;32250;-66
2022/03/11 07:02:44;;;;;;;;;;;;;;;2.12;29.66;101243.59;4484915;31;31458;-67
2022/03/11 07:05:13;;;;;;;;;;;;;;;2.50;29.68;101242.06;4482918;31;35059;-68
2022/03/11 07:07:45;;;;;;;;;;;;;;;1.39;31.00;101243.78;4489031;31;34457;-68
2022/03/11 07:10:16;;;;;;;;;;;;;;;1.48;30.69;101241.91;4490040;31;32777;-66
2022/03/11 07:12:45;;;;;;;;;;;;;;;1.54;32.87;101247.09;4490798;31;32178;-70
2022/03/11 07:15:15;;;;;;;;;;;;;;;2.00;31.34;101249.06;4486343;31;32921;-68
2022/03/11 07:17:43;;;;;;;;;;;;;;;2.01;31.68;101246.38;4491886;31;33225;-70
2022/03/11 07:20:13;;;;;;;;;;;;;;;2.32;29.86;101240.63;4485763;31;33476;-67
2022/03/11 07:22:47;;;;;;;;;;;;;;;2.83;28.20;101245.88;4487689;31;32649;-68
2022/03/11 07:25:18;;;;;;;;;;;;;;;2.61;28.83;101241.88;4486294;31;34093;-68
2022/03/11 07:27:48;;;;;;;;;;;;;;;2.28;29.07;101250.37;4484702;31;32978;-66
2022/03/11 07:30:17;;;;;;;;;;;;;;;2.41;28.85;101251.03;4486169;31;33277;-68
2022/03/11 07:32:47;;;;;;;;;;;;;;;2.91;28.48;101253.66;4484383;31;32355;-67
2022/03/11 07:35:16;;;;;;;;;;;;;;;3.08;28.24;101253.31;4491337;31;34350;-67
2022/03/11 07:37:46;;;;;;;;;;;;;;;3.38;27.64;101249.19;4483502;31;34358;-66
2022/03/11 07:40:16;;;;;;;;;;;;;;;2.92;29.41;101248.34;4484263;31;32393;-65
2022/03/11 07:42:47;;;;;;;;;;;;;;;2.63;29.46;101253.28;4486062;31;33339;-66
2022/03/11 07:45:18;;;;;;;;;;;;;;;3.30;27.71;101249.34;4490304;31;33989;-66
2022/03/11 07:47:47;;;;;;;;;;;;;;;3.42;26.64;101250.84;4490658;31;33357;-66
2022/03/11 07:50:16;;;;;;;;;;;;;;;3.17;26.74;101250.50;4484047;31;34915;-65
2022/03/11 07:52:44;;;;;;;;;;;;;;;3.57;27.77;101247.88;4483701;31;33087;-66
2022/03/11 07:55:14;;;;;;;;;;;;;;;3.47;26.67;101249.88;4490851;31;32832;-66
2022/03/11 07:57:44;;;;;;;;;;;;;;;3.26;27.58;101250.31;4487189;31;32949;-66
2022/03/11 08:00:13;;;;;;;;;;;;;;;2.91;28.04;101248.38;4486076;31;33286;-66
2022/03/11 08:02:44;;;;;;;;;;;;;;;2.19;30.61;101252.28;4494025;31;32760;-66
2022/03/11 08:05:15;;;;;;;;;;;;;;;1.82;31.05;101260.78;4484937;31;34282;-65
2022/03/11 08:07:49;;;;;;;;;;;;;;;3.00;28.12;101259.63;4485704;31;33147;-65
2022/03/11 08:10:18;;;;;;;;;;;;;;;2.33;29.34;101261.72;4487853;31;34136;-66
2022/03/11 08:12:46;;;;;;;;;;;;;;;2.98;29.60;101263.22;4485569;31;31608;-66
2022/03/11 08:15:14;;;;;;;;;;;;;;;3.08;27.60;101256.81;4494107;31;35184;-66
2022/03/11 08:17:43;;;;;;;;;;;;;;;2.61;28.08;101260.41;4484906;31;35359;-66
2022/03/11 08:20:14;;;;;;;;;;;;;;;2.62;29.89;101252.41;4485714;31;34333;-67
2022/03/11 08:22:42;;;;;;;;;;;;;;;3.18;28.40;101253.13;4483666;31;33433;-66
2022/03/11 08:25:12;;;;;;;;;;;;;;;3.28;28.16;101256.44;4489859;31;34210;-65
2022/03/11 08:27:40;;;;;;;;;;;;;;;3.59;26.59;101256.66;4487093;31;33540;-65
2022/03/11 08:30:09;;;;;;;;;;;;;;;3.36;29.24;101251.84;4488497;31;35318;-65
2022/03/11 08:32:40;;;;;;;;;;;;;;;4.23;26.92;101249.00;4487297;31;33455;-65
2022/03/11 08:35:09;;;;;;;;;;;;;;;4.47;26.66;101251.97;4479229;31;32712;-65
2022/03/11 08:37:40;;;;;;;;;;;;;;;4.59;24.06;101248.97;4484530;31;34493;-66
2022/03/11 08:40:09;;;;;;;;;;;;;;;4.40;24.75;101241.50;4483576;31;35054;-66
2022/03/11 08:42:39;;;;;;;;;;;;;;;4.74;24.92;101235.28;4481401;31;32197;-66
2022/03/11 08:45:10;;;;;;;;;;;;;;;4.58;24.18;101233.97;4485420;31;35094;-66
2022/03/11 08:47:44;;;;;;;;;;;;;;;3.32;25.62;101247.53;4492766;31;34614;-66
2022/03/11 08:50:15;;;;;;;;;;;;;;;5.04;24.37;101233.59;4486630;31;35470;-66
2022/03/11 08:52:44;;;;;;;;;;;;;;;5.73;23.69;101228.88;4483589;31;32355;-66
2022/03/11 08:55:13;;;;;;;;;;;;;;;5.80;24.11;101230.44;4492588;31;35283;-66
2022/03/11 08:57:49;;;;;;;;;;;;;;;6.08;23.27;101224.28;4484634;31;34235;-66
2022/03/11 09:00:20;;;;;;;;;;;;;;;6.51;23.91;101225.47;4482886;31;34638;-66
2022/03/11 09:02:50;;;;;;;;;;;;;;;6.27;21.91;101222.75;4486238;31;33544;-66
2022/03/11 09:05:20;;;;;;;;;;;;;;;7.04;22.04;101221.88;4485214;31;33610;-66
2022/03/11 09:07:49;;;;;;;;;;;;;;;6.53;21.44;101215.66;4495857;31;33471;-66
2022/03/11 09:10:19;;;;;;;;;;;;;;;7.19;20.70;101221.28;4489559;31;33187;-66
2022/03/11 09:12:48;;;;;;;;;;;;;;;7.85;20.33;101213.41;4484169;31;34384;-66
2022/03/11 09:15:17;;;;;;;;;;;;;;;7.75;20.44;101214.72;4496179;31;34185;-66
2022/03/11 09:17:45;;;;;;;;;;;;;;;7.40;20.75;101219.59;4481915;31;35127;-67
2022/03/11 09:20:15;;;;;;;;;;;;;;;6.75;21.02;101206.00;4486033;31;32734;-66
2022/03/11 09:22:55;;;;;;;;;;;;;;;7.03;22.00;101202.38;4483013;31;33614;-68
2022/03/11 09:25:24;;;;;;;;;;;;;;;6.37;21.13;101202.03;4483665;31;34080;-68
2022/03/11 09:27:52;;;;;;;;;;;;;;;5.57;22.93;101201.06;4482066;31;33119;-67
2022/03/11 09:30:22;;;;;;;;;;;;;;;6.88;21.45;101205.59;4480790;31;34833;-66
2022/03/11 09:32:52;;;;;;;;;;;;;;;7.04;20.64;101204.09;4487925;31;32057;-66
2022/03/11 09:35:22;;;;;;;;;;;;;;;5.81;22.38;101204.72;4483300;31;33695;-66
2022/03/11 09:37:51;;;;;;;;;;;;;;;6.20;23.48;101197.28;4482217;31;32515;-67
2022/03/11 09:40:20;;;;;;;;;;;;;;;7.38;21.16;101194.81;4484219;31;34354;-66
2022/03/11 09:42:51;;;;;;;;;;;;;;;6.62;21.37;101191.41;4484651;31;33647;-69
2022/03/11 09:45:21;;;;;;;;;;;;;;;7.10;20.89;101195.03;4470497;31;34218;-69
2022/03/11 09:47:49;;;;;;;;;;;;;;;8.02;21.55;101178.91;4484025;31;32862;-72
2022/03/11 09:50:16;;;;;;;;;;;;;;;8.98;20.04;101181.91;4477062;31;33989;-68
2022/03/11 09:52:47;;;;;;;;;;;;;;;8.04;19.79;101177.06;4472202;31;33883;-68
2022/03/11 09:55:19;;;;;;;;;;;;;;;7.22;20.65;101190.09;4489084;31;34654;-70
2022/03/11 09:57:49;;;;;;;;;;;;;;;8.23;19.39;101184.31;4485786;31;34758;-67
2022/03/11 10:00:17;;;;;;;;;;;;;;;7.90;19.65;101182.13;4485617;31;34928;-67
2022/03/11 10:02:46;;;;;;;;;;;;;;;6.36;20.42;101180.81;4473175;32;33459;-67
2022/03/11 10:05:15;;;;;;;;;;;;;;;7.18;19.82;101177.81;4483903;31;33812;-69
2022/03/11 10:08:00;;;;;;;;;;;;;;;8.04;19.75;101174.41;4485918;31;34208;-67
2022/03/11 10:10:28;;;;;;;;;;;;;;;7.44;20.05;101175.94;4485844;31;32740;-67
2022/03/11 10:13:08;;;;;;;;;;;;;;;8.46;19.52;101164.69;4487624;31;33446;-67
2022/03/11 10:15:39;;;;;;;;;;;;;;;8.49;19.12;101173.41;4487510;31;33828;-67
2022/03/11 10:18:14;;;;;;;;;;;;;;;7.82;19.27;101163.75;4487836;31;33294;-67
2022/03/11 10:20:43;;;;;;;;;;;;;;;8.25;19.27;101166.41;4486533;31;34136;-70
2022/03/11 10:23:13;;;;;;;;;;;;;;;9.15;19.52;101165.13;4484047;31;32940;-67
2022/03/11 10:25:42;;;;;;;;;;;;;;;9.10;18.30;101162.66;4487807;31;33860;-67
2022/03/11 10:28:12;;;;;;;;;;;;;;;9.47;17.40;101160.94;4487596;31;33204;-71
2022/03/11 10:30:42;;;;;;;;;;;;;;;9.48;18.33;101161.81;4486019;31;33044;-68
2022/03/11 10:33:11;;;;;;;;;;;;;;;8.67;18.26;101171.75;4485071;31;33475;-68
2022/03/11 10:35:42;;;;;;;;;;;;;;;9.37;17.62;101166.78;4491154;31;34098;-68
2022/03/11 10:38:12;;;;;;;;;;;;;;;9.60;17.79;101155.00;4487185;31;32636;-66
2022/03/11 10:40:41;;;;;;;;;;;;;;;9.41;18.23;101158.56;4484697;31;31501;-67
2022/03/11 10:43:17;;;;;;;;;;;;;;;9.28;17.81;101160.09;4486889;31;31814;-66
2022/03/11 10:45:52;;;;;;;;;;;;;;;9.32;17.54;101150.97;4484802;31;34408;-66
2022/03/11 10:48:42;;;;;;;;;;;;;;;9.83;18.45;101154.75;4485514;31;35383;-67
2022/03/11 10:51:33;;;;;;;;;;;;;;;9.20;17.97;101147.06;4488593;31;33880;-67
2022/03/11 10:54:06;;;;;;;;;;;;;;;9.73;16.58;101140.12;4498697;31;31631;-67
2022/03/11 10:56:35;;;;;;;;;;;;;;;10.03;17.00;101127.88;4486760;31;33722;-66
2022/03/11 10:59:05;;;;;;;;;;;;;;;11.09;16.71;101125.00;4490226;31;33696;-66
2022/03/11 11:01:36;;;;;;;;;;;;;;;10.92;16.51;101117.91;4487654;31;32965;-66
2022/03/11 11:04:05;;;;;;;;;;;;;;;10.86;16.47;101120.91;4469479;31;32575;-67
2022/03/11 11:06:34;;;;;;;;;;;;;;;10.96;18.04;101114.09;4491518;31;33962;-68
2022/03/11 11:09:06;;;;;;;;;;;;;;;11.00;16.49;101108.56;4489823;31;33967;-66
2022/03/11 11:11:34;;;;;;;;;;;;;;;9.62;17.15;101111.22;4482453;31;33377;-66
2022/03/11 11:14:05;;;;;;;;;;;;;;;8.83;18.42;101119.41;4492130;31;33288;-66
2022/03/11 11:16:40;;;;;;;;;;;;;;;9.14;17.25;101111.78;4481635;31;32866;-65
2022/03/11 11:19:10;;;;;;;;;;;;;;;10.22;16.38;101102.88;4488086;31;35333;-66
2022/03/11 11:21:40;;;;;;;;;;;;;;;10.33;16.78;101103.19;4492144;31;34239;-66
2022/03/11 11:24:12;;;;;;;;;;;;;;;11.28;15.85;101102.56;4483696;31;33384;-66
2022/03/11 11:26:44;;;;;;;;;;;;;;;11.69;15.51;101094.84;4483519;31;33830;-66
2022/03/11 11:29:15;;;;;;;;;;;;;;;11.68;15.59;101086.84;4493749;31;34303;-67
2022/03/11 11:31:44;;;;;;;;;;;;;;;12.03;15.02;101082.13;4466650;31;34394;-66
2022/03/11 11:34:23;;;;;;;;;;;;;;;11.68;14.21;101079.66;4484129;31;31652;-67
2022/03/11 11:36:52;;;;;;;;;;;;;;;11.59;13.98;101078.41;4489055;31;33865;-67
2022/03/11 11:39:21;;;;;;;;;;;;;;;11.39;14.51;101076.00;4484906;31;33783;-68
2022/03/11 11:41:53;;;;;;;;;;;;;;;11.37;14.83;101075.22;4471881;32;32998;-67
2022/03/11 11:44:52;;;;;;;;;;;;;;;11.02;15.31;101075.38;4482009;31;33699;-66
2022/03/11 11:47:22;;;;;;;;;;;;;;;10.71;15.19;101066.34;4476637;31;34034;-68
2022/03/11 11:49:52;;;;;;;;;;;;;;;11.22;17.00;101066.22;4481142;31;34993;-70
2022/03/11 11:52:25;;;;;;;;;;;;;;;11.66;14.70;101068.19;4484782;31;33244;-68
2022/03/11 11:54:54;;;;;;;;;;;;;;;11.40;15.49;101059.84;4480777;31;33236;-69
2022/03/11 11:57:25;;;;;;;;;;;;;;;11.30;16.42;101061.31;4463898;31;33698;-68
2022/03/11 11:59:54;;;;;;;;;;;;;;;11.02;14.69;101059.31;4482444;31;33793;-69
2022/03/11 12:02:30;;;;;;;;;;;;;;;11.05;16.06;101053.78;4478243;31;33874;-69
2022/03/11 12:04:59;;;;;;;;;;;;;;;9.65;15.47;101051.38;4479827;31;33132;-68
2022/03/11 12:07:47;;;;;;;;;;;;;;;10.81;15.51;101045.28;4477921;31;36180;-67
2022/03/11 12:10:35;;;;;;;;;;;;;;;10.98;16.01;101047.06;4480502;31;33363;-69
2022/03/11 12:13:04;;;;;;;;;;;;;;;11.21;14.75;101040.41;4467531;31;33681;-67
2022/03/11 12:15:37;;;;;;;;;;;;;;;10.47;15.29;101032.88;4481605;31;33819;-68
2022/03/11 12:18:06;;;;;;;;;;;;;;;9.49;16.31;101032.56;4483990;31;33273;-69
2022/03/11 12:20:36;;;;;;;;;;;;;;;9.95;16.36;101041.81;4469331;31;34425;-69
2022/03/11 12:23:08;;;;;;;;;;;;;;;10.24;16.46;101051.00;4483801;31;33020;-70
2022/03/11 12:25:37;;;;;;;;;;;;;;;10.65;16.14;101029.19;4485145;31;33396;-68
2022/03/11 12:28:05;;;;;;;;;;;;;;;10.10;15.68;101042.81;4483483;31;31446;-68
2022/03/11 12:30:37;;;;;;;;;;;;;;;9.60;15.84;101035.59;4485293;31;34417;-68
2022/03/11 12:33:07;;;;;;;;;;;;;;;9.73;18.98;101027.81;4478647;31;32828;-67
2022/03/11 12:35:36;;;;;;;;;;;;;;;9.19;15.25;101030.47;4482403;31;32291;-68
2022/03/11 12:38:04;;;;;;;;;;;;;;;9.37;16.58;101025.16;4484589;31;34281;-69
2022/03/11 12:40:32;;;;;;;;;;;;;;;8.76;19.01;101028.97;4485414;31;34014;-68
2022/03/11 12:43:03;;;;;;;;;;;;;;;9.54;16.14;101020.72;4481694;32;32993;-67
2022/03/11 12:45:34;;;;;;;;;;;;;;;9.99;16.70;101015.78;4470820;31;33406;-68
2022/03/11 12:48:03;;;;;;;;;;;;;;;9.21;16.13;101022.38;4483274;31;33855;-69
2022/03/11 12:50:31;;;;;;;;;;;;;;;9.54;15.40;101012.72;4483098;31;33168;-68
2022/03/11 12:53:02;;;;;;;;;;;;;;;9.35;16.15;101011.03;4488954;31;33433;-67
2022/03/11 12:55:31;;;;;;;;;;;;;;;9.49;16.06;101011.19;4483289;31;33095;-70
2022/03/11 12:58:00;;;;;;;;;;;;;;;8.86;16.99;101004.47;4477444;31;34465;-68
2022/03/11 13:00:34;;;;;;;;;;;;;;;8.44;17.11;101020.66;4477365;31;34464;-68
2022/03/11 13:03:04;;;;;;;;;;;;;;;8.10;17.44;101014.16;4478599;31;33255;-68